Tiempo atmosférico en la estación meteorológica de Chandrexa De Queixa, Ourense (990 m.)



Fecha
DESCASC
Temp. máxima en grados centígrados (hora)
DESCASC
Temp. mínima en grados centígrados (hora)
DESCASC
Temp. media en grados centígrados
DESCASC
Racha de viento máxima en m/sg (hora)
DESCASC
Velocidad máxima media en intervalos de 10 minutos(hora)
DESCASC
Precipitaciones diarias en mm
DESCASC
Precipitaciones de 00:00 a 06:00 en mm
DESCASC
Precipitaciones de 06:00 a 12:00 en mm
DESCASC
Precipitaciones de 12:00 a 18:00 en mm
DESCASC
Precipitaciones de 18:00 a 24:00 en mm
DESCASC
22-01-2020 7.3 (16:40) 2.2 (06:40) 4.8 7.22 (10:10) 4.17 (10:10) 0 0 0 0 0
21-01-2020 7.2 (14:40) -0.8 (06:40) 3.2 11.67 (15:30) 5 (15:30) 0 0 0 0 0
20-01-2020 5.3 (15:20) -1.1 (06:50) 2.1 17.22 (14:20) 8.61 (14:20) 0 0 0 0 0
19-01-2020 7.6 (15:50) 0 (00:00) 3.8 11.94 (21:50) 5.56 (21:10) 2.6 2.6 0 0 0
18-01-2020 10.8 (13:30) 3.4 (00:00) 7.1 20.28 (13:40) 12.5 (07:10) 10.2 0 0.2 1.4 8.6
17-01-2020 5.6 (15:50) 2 (00:00) 3.8 14.44 (02:40) 7.5 (02:30) 3.4 2.2 1.2 0 0
16-01-2020 9.7 (00:20) 5 (00:00) 7.3 33.06 (16:40) 22.78 (17:40) 2.8 0.6 1 0 1.2
15-01-2020 10.2 (15:30) 4.6 (00:00) 7.4 28.06 (03:30) 19.72 (04:40) 16.8 2.6 14.2 0 0
14-01-2020 8.8 (13:20) 4.8 (00:00) 6.8 25 (23:50) 15.56 (23:50) 0.4 0 0 0 0.4
13-01-2020 9.8 (14:00) -1.4 (-00:0) 4.2 17.78 (23:20) 12.5 (23:20) 0 0 0 0 0
12-01-2020 12.7 (15:40) -3.9 (-00:0) 4.4 3.33 (19:10) 2.22 (19:20) 0 0 0 0 0
11-01-2020 10.1 (15:50) -2.8 (-00:0) 3.7 3.89 (13:20) 3.06 (13:40) 0 0 0 0 0
10-01-2020 6.5 (15:30) -1.3 (-00:0) 2.6 7.22 (02:30) 2.78 (03:20) 0.2 0 0.2 0 0
09-01-2020 11 (14:20) 2 (00:00) 6.5 20 (14:10) 11.39 (14:10) 0.4 0 0 0.4 0
08-01-2020 15.7 (15:40) 0.3 (00:00) 8 5.56 (16:00) 2.22 (16:00) 0 0 0 0 0
07-01-2020 14.2 (15:50) -2 (-00:0) 6.1 3.89 (13:20) 3.06 (13:20) 0 0 0 0 0
06-01-2020 10.7 (15:50) -1.8 (-00:0) 4.4 3.89 (08:40) 2.78 (13:30) 0 0 0 0 0
05-01-2020 10.2 (15:30) -3.6 (-00:0) 3.3 3.06 (20:50) 2.22 (16:10) 0 0 0 0 0
04-01-2020 3.6 (14:50) -2.2 (-00:0) 0.7 4.17 (14:20) 3.33 (14:20) 0.2 0 0.2 0 0
03-01-2020 8.2 (14:30) 1.7 (00:00) 4.9 4.44 (14:40) 1.94 (12:20) 0.8 0 0.2 0.4 0.2
02-01-2020 14.2 (14:10) 0.2 (00:00) 7.2 8.06 (14:00) 5 (13:50) 0 0 0 0 0
01-01-2020 13.5 (15:40) -1.6 (-00:0) 5.9 5 (18:10) 3.61 (14:00) 0 0 0 0 0
31-12-2019 14.6 (15:20) 0.1 (00:00) 7.4 3.61 (01:30) 2.22 (14:10) 0 0 0 0 0
30-12-2019 -- (--) -- (--) -- -- (--) -- (--) 0 0 0 0 0
29-12-2019 16.1 (16:30) 2.1 (00:00) 9.1 3.61 (14:30) 2.78 (14:30) 0 0 0 0 0
28-12-2019 13.9 (14:50) -0.3 (00:00) 6.8 3.06 (21:40) 2.5 (15:20) 0 0 0 0 0
27-12-2019 10.1 (16:10) -3.6 (-00:0) 3.3 6.11 (17:40) 3.33 (14:20) 0 0 0 0 0
26-12-2019 9.7 (15:50) -1.7 (-00:0) 4 5 (01:50) 3.61 (01:50) 0 0 0 0 0

Gráficas

Temp. máximas Temp. mínimas Temp. medias Precipitaciones Rachas de viento máximas Velocidades máximas media en intervalos de 10 minutos

Datos horarios

Fecha y hora oficial Temperatura (ºC) Velocidad del viento (km/h) Dirección del viento Racha (km/h) Dirección de racha Precipitación (mm) Presión (hPa) Tendencia (hPa) Humedad (%)
2020-01-24 23:00:00 1.7 4 Sur 6 Sur 0 -- -- 95
2020-01-24 22:00:00 3.1 0 Calma 5 Noroeste 0 -- -- 96
2020-01-24 21:00:00 3.9 3 Sur 11 Sur 0 -- -- 94
2020-01-24 20:00:00 4.3 3 Norte 4 Norte 0 -- -- 94
2020-01-24 19:00:00 4.8 0 Calma 8 Oeste 0.2 -- -- 90
2020-01-24 18:00:00 6.1 0 Calma 4 Oeste 0.2 -- -- 88
2020-01-24 17:00:00 6.3 0 Calma 4 Oeste 0 -- -- 87
2020-01-24 16:00:00 6.2 2 Norte 8 Sudoeste 0 -- -- 88
2020-01-24 15:00:00 6.8 4 Oeste 9 Sudoeste 0 -- -- 79
2020-01-24 14:00:00 6.3 2 Sur 6 Sur 0 -- -- 82
2020-01-24 13:00:00 5.7 4 Norte 8 Norte 0 -- -- 85
2020-01-24 12:00:00 3.9 5 Nordeste 12 Norte 0 -- -- 91
2020-01-24 11:00:00 4.7 9 Sudeste 16 Sudeste 0 -- -- 87
2020-01-24 10:00:00 3 3 Este 24 Sudeste 0 -- -- 93
2020-01-24 09:00:00 3.5 12 Sur 21 Sudeste 0 -- -- 87
2020-01-24 08:00:00 3.3 7 Sur 26 Sur 0 -- -- 89
2020-01-24 07:00:00 3.9 17 Sur 26 Sur 0 -- -- 87
2020-01-24 06:00:00 4.1 4 Sudeste 20 Sudeste 0 -- -- 87
2020-01-24 05:00:00 3.1 7 Sudeste 19 Sudeste 0 -- -- 93
2020-01-24 04:00:00 3.3 7 Sudeste 19 Sudeste 0 -- -- 90
2020-01-24 03:00:00 3.1 2 Sur 11 Norte 0 -- -- 90
2020-01-24 02:00:00 3.3 7 Nordeste 13 Sudeste 0 -- -- 86
2020-01-24 01:00:00 4 2 Este 14 Sudeste 0 -- -- 82
2020-01-24 00:00:00 4.2 4 Este 13 Sur 0 -- -- 83
2020-01-23 23:00:00 2.8 2 Sur 11 Nordeste 0 -- -- 84
2020-01-23 22:00:00 3.1 2 Norte 5 Sur 0 -- -- 83
2020-01-23 21:00:00 3.8 0 Calma 11 Nordeste 0 -- -- 81
2020-01-23 20:00:00 4.1 7 Norte 12 Sudeste 0 -- -- 78
2020-01-23 19:00:00 5.3 3 Nordeste 9 Sudeste 0 -- -- 73
2020-01-23 18:00:00 6.8 4 Nordeste 31 Sur 0 -- -- 72
2020-01-23 17:00:00 8.7 17 Sur 35 Sur 0 -- -- 62
2020-01-23 16:00:00 9.2 26 Sudeste 39 Sur 0 -- -- 58
2020-01-23 15:00:00 8.3 19 Sudeste 40 Sur 0 -- -- 61
2020-01-23 14:00:00 9.9 13 Sudeste 32 Este 0 -- -- 60
2020-01-23 13:00:00 5.1 12 Nordeste 18 Norte 0 -- -- 79
2020-01-23 12:00:00 3.5 3 Norte 10 Nordeste 0 -- -- 84
2020-01-23 11:00:00 3 3 Nordeste 8 Noroeste 0 -- -- 86
2020-01-23 10:00:00 0.8 0 Calma 6 Norte 0 -- -- 95
2020-01-23 09:00:00 0.2 0 Calma 11 Este 0 -- -- 95
2020-01-23 08:00:00 0.5 6 Nordeste 13 Nordeste 0 -- -- 94
2020-01-23 07:00:00 0.8 9 Nordeste 14 Sudeste 0 -- -- 92
2020-01-23 06:00:00 2.1 7 Este 22 Sudeste 0 -- -- 81
2020-01-23 05:00:00 0.9 8 Sur 15 Sudeste 0 -- -- 91
2020-01-23 04:00:00 1.1 6 Nordeste 12 Nordeste 0 -- -- 92
2020-01-23 03:00:00 1.4 3 Sudeste 7 Noroeste 0 -- -- 88
2020-01-23 02:00:00 2.1 3 Oeste 8 Norte 0 -- -- 87
2020-01-23 01:00:00 2.3 2 Noroeste 10 Noroeste 0 -- -- 84
2020-01-23 00:00:00 2.3 3 Sudoeste 11 Oeste 0 -- -- 85
2020-01-22 23:00:00 2.5 3 Oeste 12 Sur 0 -- -- 82
2020-01-22 22:00:00 3.1 0 Calma 8 Sudoeste 0 -- -- 79
2020-01-22 21:00:00 4.2 0 Calma 11 Nordeste 0 -- -- 73
2020-01-22 20:00:00 5.2 8 Nordeste 18 Nordeste 0 -- -- 69
2020-01-22 19:00:00 5.6 10 Este 22 Este 0 -- -- 67
2020-01-22 18:00:00 6.8 12 Este 23 Sudeste 0 -- -- 63
2020-01-22 17:00:00 7.2 7 Nordeste 21 Nordeste 0 -- -- 70
2020-01-22 16:00:00 6.8 8 Norte 19 Norte 0 -- -- 74
2020-01-22 15:00:00 6.4 7 Norte 19 Nordeste 0 -- -- 74
2020-01-22 14:00:00 6.1 6 Nordeste 18 Nordeste 0 -- -- 75
2020-01-22 13:00:00 6.2 5 Norte 23 Norte 0 -- -- 75
2020-01-22 12:00:00 6.1 7 Nordeste 22 Nordeste 0 -- -- 75
2020-01-22 11:00:00 5.1 12 Nordeste 26 Nordeste 0 -- -- 79
2020-01-22 10:00:00 4.4 14 Nordeste 24 Nordeste 0 -- -- 75
2020-01-22 09:00:00 2.8 0 Calma 5 Oeste 0 -- -- 80
2020-01-22 08:00:00 2.3 2 Oeste 7 Sur 0 -- -- 81
2020-01-22 07:00:00 2.3 3 Sur 5 Sur 0 -- -- 79
2020-01-22 06:00:00 2.6 0 Calma 4 Sur 0 -- -- 77
2020-01-22 05:00:00 3.5 0 Calma 9 Norte 0 -- -- 74
2020-01-22 04:00:00 3.1 3 Sudoeste 8 Sudeste 0 -- -- 77
2020-01-22 03:00:00 3 3 Sur 8 Sur 0 -- -- 79
2020-01-22 02:00:00 3.8 0 Calma 8 Norte 0 -- -- 76
2020-01-22 01:00:00 5.4 5 Nordeste 16 Nordeste 0 -- -- 68
2020-01-22 00:00:00 4.4 3 Sudoeste 16 Oeste 0 -- -- 77
2020-01-21 23:00:00 4.3 4 Noroeste 16 Noroeste 0 -- -- 77
2020-01-21 22:00:00 4.4 5 Sudeste 28 Este 0 -- -- 78
2020-01-21 21:00:00 4.7 2 Sudeste 21 Nordeste 0 -- -- 76
2020-01-21 20:00:00 5.4 8 Nordeste 29 Nordeste 0 -- -- 74
2020-01-21 19:00:00 5 2 Sudoeste 21 Nordeste 0 -- -- 73
2020-01-21 18:00:00 5.5 4 Norte 17 Nordeste 0 -- -- 70
2020-01-21 17:00:00 5.8 8 Nordeste 32 Nordeste 0 -- -- 69
2020-01-21 16:00:00 6.4 13 Nordeste 42 Nordeste 0 -- -- 65
2020-01-21 15:00:00 6.6 10 Nordeste 30 Nordeste 0 -- -- 57
2020-01-21 14:00:00 6.5 17 Nordeste 31 Nordeste 0 -- -- 55
2020-01-21 13:00:00 6.5 6 Nordeste 25 Noroeste 0 -- -- 54
2020-01-21 12:00:00 5.9 6 Norte 18 Norte 0 -- -- 56
2020-01-21 11:00:00 3.7 5 Nordeste 18 Norte 0 -- -- 63
2020-01-21 10:00:00 1.5 7 Norte 16 Norte 0 -- -- 69
2020-01-21 09:00:00 -0.2 4 Este 14 Norte 0 -- -- 72
2020-01-21 08:00:00 -0.5 3 Nordeste 13 Norte 0 -- -- 72
2020-01-21 07:00:00 -0.8 4 Norte 13 Nordeste 0 -- -- 72
2020-01-21 06:00:00 -0.1 5 Norte 15 Nordeste 0 -- -- 69
2020-01-21 05:00:00 -0.6 3 Sudeste 9 Norte 0 -- -- 69
2020-01-21 04:00:00 -0.5 3 Noroeste 12 Sudoeste 0 -- -- 66
2020-01-21 03:00:00 -0.3 4 Norte 12 Noroeste 0 -- -- 63
2020-01-21 02:00:00 -0.2 2 Noroeste 10 Nordeste 0 -- -- 62
2020-01-21 01:00:00 0 3 Norte 19 Nordeste 0 -- -- 59
2020-01-21 00:00:00 1.2 8 Nordeste 23 Este 0 -- -- 51
2020-01-20 23:00:00 1.2 11 Nordeste 31 Nordeste 0 -- -- 52
2020-01-20 22:00:00 1.9 9 Nordeste 25 Nordeste 0 -- -- 50
2020-01-20 21:00:00 1.4 8 Nordeste 24 Nordeste 0 -- -- 54
2020-01-20 20:00:00 1.6 2 Sur 19 Nordeste 0 -- -- 56
2020-01-20 19:00:00 2.1 5 Nordeste 23 Norte 0 -- -- 53
2020-01-20 18:00:00 3.4 15 Nordeste 27 Nordeste 0 -- -- 45
2020-01-20 17:00:00 4.3 10 Nordeste 44 Norte 0 -- -- 40
2020-01-20 16:00:00 4.7 18 Nordeste 36 Norte 0 -- -- 40
2020-01-20 15:00:00 5 12 Nordeste 62 Nordeste 0 -- -- 38
2020-01-20 14:00:00 4.3 15 Este 49 Nordeste 0 -- -- 48
2020-01-20 13:00:00 2.7 21 Nordeste 55 Nordeste 0 -- -- 54
2020-01-20 12:00:00 1.9 17 Nordeste 44 Nordeste 0 -- -- 58
2020-01-20 11:00:00 0.9 14 Nordeste 33 Nordeste 0 -- -- 61
2020-01-20 10:00:00 0 10 Nordeste 31 Nordeste 0 -- -- 62
2020-01-20 09:00:00 -0.5 13 Nordeste 30 Nordeste 0 -- -- 68
2020-01-20 08:00:00 -0.7 8 Nordeste 22 Nordeste 0 -- -- 70
2020-01-20 07:00:00 -1 9 Nordeste 33 Nordeste 0 -- -- 71
2020-01-20 06:00:00 -0.1 18 Nordeste 41 Nordeste 0 -- -- 66
2020-01-20 05:00:00 -0.3 17 Nordeste 37 Nordeste 0 -- -- 68
2020-01-20 04:00:00 -0.9 12 Nordeste 25 Nordeste 0 -- -- 68
2020-01-20 03:00:00 -0.2 5 Norte 26 Nordeste 0 -- -- 65
2020-01-20 02:00:00 -0.2 12 Nordeste 34 Nordeste 0 -- -- 65
2020-01-20 01:00:00 0.2 7 Nordeste 23 Nordeste 0 -- -- 62
2020-01-20 00:00:00 0 9 Nordeste 26 Nordeste 0 -- -- 57
2020-01-19 23:00:00 0.5 2 Este 24 Nordeste 0 -- -- 52
2020-01-19 22:00:00 1.3 12 Nordeste 43 Nordeste 0 -- -- 50
2020-01-19 21:00:00 1.7 18 Nordeste 32 Nordeste 0 -- -- 52
2020-01-19 20:00:00 1.9 8 Nordeste 26 Nordeste 0 -- -- 57
2020-01-19 19:00:00 2.6 9 Nordeste 22 Nordeste 0 -- -- 56
2020-01-19 18:00:00 4.3 3 Noroeste 24 Noroeste 0 -- -- 67
2020-01-19 17:00:00 6.3 7 Norte 23 Noroeste 0 -- -- 65
2020-01-19 16:00:00 7.5 6 Norte 20 Nordeste 0 -- -- 64
2020-01-19 15:00:00 7.2 6 Norte 16 Noroeste 0 -- -- 70
2020-01-19 14:00:00 5.9 6 Nordeste 17 Nordeste 0 -- -- 75
2020-01-19 13:00:00 5.6 6 Norte 18 Norte 0 -- -- 72
2020-01-19 12:00:00 4.4 4 Nordeste 17 Nordeste 0 -- -- 81
2020-01-19 11:00:00 3 8 Nordeste 18 Nordeste 0 -- -- 87
2020-01-19 10:00:00 1.9 3 Nordeste 16 Este 0 -- -- 98
2020-01-19 09:00:00 2.2 8 Nordeste 21 Nordeste 0 -- -- 97
2020-01-19 08:00:00 3 6 Nordeste 23 Norte 0 -- -- 100
2020-01-19 07:00:00 3.4 5 Norte 18 Norte 0 -- -- 100
2020-01-19 06:00:00 3.3 3 Norte 18 Norte 0.2 -- -- 100
2020-01-19 05:00:00 3.6 4 Norte 14 Norte 0.2 -- -- 100
2020-01-19 04:00:00 3.6 3 Nordeste 18 Norte 0.2 -- -- 100
2020-01-19 03:00:00 3.4 5 Nordeste 18 Norte 0.4 -- -- 100
2020-01-19 02:00:00 3.3 7 Norte 20 Nordeste 0 -- -- 100
2020-01-19 01:00:00 3.7 9 Norte 25 Norte 1.6 -- -- 100
2020-01-19 00:00:00 4.1 6 Noroeste 22 Noroeste 0.4 -- -- 100
2020-01-18 23:00:00 4 3 Norte 22 Noroeste 0 -- -- 99
2020-01-18 22:00:00 3.7 8 Noroeste 21 Noroeste 2 -- -- 99
2020-01-18 21:00:00 3.4 10 Noroeste 38 Oeste 4.4 -- -- 98
2020-01-18 20:00:00 3.7 5 Oeste 31 Oeste 0.8 -- -- 98
2020-01-18 19:00:00 4 9 Oeste 33 Oeste 1 -- -- 96
2020-01-18 18:00:00 4.6 8 Oeste 35 Sudoeste 0 -- -- 93
2020-01-18 17:00:00 5.1 18 Oeste 42 Oeste 1.4 -- -- 91
2020-01-18 16:00:00 7 18 Oeste 60 Sudoeste 0 -- -- 84
2020-01-18 15:00:00 8 28 Oeste 64 Sudoeste 0 -- -- 91
2020-01-18 14:00:00 9.9 35 Sudoeste 73 Sudoeste 0 -- -- 84
2020-01-18 13:00:00 10.1 40 Sudoeste 68 Sudoeste 0 -- -- 85
2020-01-18 12:00:00 9.9 37 Sur 54 Sur 0 -- -- 85
2020-01-18 11:00:00 8.4 36 Sur 58 Sur 0 -- -- 89
2020-01-18 10:00:00 6.9 30 Sur 44 Sudeste 0 -- -- 90
2020-01-18 09:00:00 6.3 28 Sur 58 Sur 0 -- -- 89
2020-01-18 08:00:00 6 42 Sur 63 Sur 0 -- -- 89
2020-01-18 07:00:00 5.4 44 Sur 63 Sur 0.2 -- -- 88
2020-01-18 06:00:00 5.2 31 Sur 58 Sudeste 0 -- -- 89
2020-01-18 05:00:00 5.6 32 Sur 61 Sur 0 -- -- 86
2020-01-18 04:00:00 5 35 Sur 58 Sur 0 -- -- 81
2020-01-18 03:00:00 4.5 37 Sur 59 Sur 0 -- -- 78
2020-01-18 02:00:00 4.9 21 Sur 39 Sur 0 -- -- 70
2020-01-18 01:00:00 5.1 13 Sur 33 Sur 0 -- -- 66
2020-01-18 00:00:00 5 15 Sudeste 41 Sur 0 -- -- 73
2020-01-17 23:00:00 3.7 14 Sur 29 Sur 0 -- -- 76
2020-01-17 22:00:00 3.3 2 Este 9 Sudoeste 0 -- -- 81
2020-01-17 21:00:00 3.5 2 Oeste 17 Sudeste 0 -- -- 81
2020-01-17 20:00:00 3.4 6 Sur 10 Sur 0 -- -- 80
2020-01-17 19:00:00 3.7 0 Calma 3 Oeste 0 -- -- 86
2020-01-17 18:00:00 4.5 0 Calma 4 Noroeste 0 -- -- 80
2020-01-17 17:00:00 5.1 0 Calma 9 Noroeste 0 -- -- 78
2020-01-17 16:00:00 5.6 5 Sudoeste 20 Oeste 0 -- -- 75
2020-01-17 15:00:00 5.3 5 Oeste 17 Noroeste 0 -- -- 77
2020-01-17 14:00:00 4.6 5 Oeste 27 Sudoeste 0 -- -- 84
2020-01-17 13:00:00 4.2 15 Sudoeste 26 Oeste 0 -- -- 83
2020-01-17 12:00:00 4.3 11 Sudoeste 26 Oeste 0 -- -- 84
2020-01-17 11:00:00 3.4 9 Oeste 25 Oeste 0 -- -- 93
2020-01-17 10:00:00 2.2 11 Oeste 23 Oeste 0 -- -- 97
2020-01-17 09:00:00 2 6 Oeste 32 Oeste 0.8 -- -- 97
2020-01-17 08:00:00 3.1 9 Oeste 33 Sudoeste 0 -- -- 94
2020-01-17 07:00:00 3.1 8 Oeste 35 Sudoeste 0.4 -- -- 95
2020-01-17 06:00:00 3.3 9 Oeste 43 Sudoeste 0.2 -- -- 95
2020-01-17 05:00:00 3.8 20 Oeste 39 Oeste 0 -- -- 93
2020-01-17 04:00:00 4 15 Oeste 40 Oeste 1.4 -- -- 96
2020-01-17 03:00:00 4.4 16 Oeste 52 Sudoeste 0.4 -- -- 92
2020-01-17 02:00:00 5.2 26 Sudoeste 47 Sudoeste 0 -- -- 90
2020-01-17 01:00:00 5 17 Sur 30 Sudoeste 0.2 -- -- 94
2020-01-17 00:00:00 5.1 17 Sudoeste 40 Sudoeste 0.6 -- -- 94
2020-01-16 23:00:00 5.6 27 Sudoeste 44 Sudoeste 0 -- -- 90
2020-01-16 22:00:00 5.5 22 Sudoeste 60 Sudoeste 0.2 -- -- 88
2020-01-16 21:00:00 6.4 33 Sur 61 Sudoeste 0 -- -- 83
2020-01-16 20:00:00 7.1 42 Sudoeste 85 Sur 0.2 -- -- 87
2020-01-16 19:00:00 6.6 59 Sur 107 Sur 0.2 -- -- 93
2020-01-16 18:00:00 6.5 73 Sur 112 Sur 0 -- -- 90
2020-01-16 17:00:00 6.9 64 Sur 119 Sur 0 -- -- 90
2020-01-16 16:00:00 7.2 68 Sur 113 Sur 0 -- -- 90
2020-01-16 15:00:00 7.9 73 Sur 104 Sur 0 -- -- 84
2020-01-16 14:00:00 7.6 69 Sur 111 Sur 0 -- -- 91
2020-01-16 13:00:00 8.1 69 Sur 108 Sur 0 -- -- 90
2020-01-16 12:00:00 8.5 64 Sur 106 Sur 0.2 -- -- 91
2020-01-16 11:00:00 8.5 61 Sur 87 Sur 0.2 -- -- 92
2020-01-16 10:00:00 8.5 45 Sur 81 Sur 0 -- -- 90
2020-01-16 09:00:00 8.5 48 Sur 93 Sur 0 -- -- 89
2020-01-16 08:00:00 8.2 44 Sur 81 Sur 0.4 -- -- 90
2020-01-16 07:00:00 8.3 37 Sur 96 Sur 0.2 -- -- 94
2020-01-16 06:00:00 8.4 52 Sur 83 Sur 0.4 -- -- 95
2020-01-16 05:00:00 8.7 42 Sur 71 Sur 0.2 -- -- 93
2020-01-16 04:00:00 9 40 Sur 82 Sudeste 0 -- -- 92
2020-01-16 03:00:00 9.3 45 Sur 76 Sur 0 -- -- 85
2020-01-16 02:00:00 9.4 36 Sur 80 Sudoeste 0 -- -- 82
2020-01-16 01:00:00 9.5 48 Sur 77 Sur 0 -- -- 79
2020-01-16 00:00:00 9.5 53 Sur 82 Sudoeste 0 -- -- 81
2020-01-15 23:00:00 9.8 45 Sur 74 Sur 0 -- -- 85
2020-01-15 22:00:00 9.3 40 Sur 72 Sur 0 -- -- 88
2020-01-15 21:00:00 9.1 42 Sur 71 Sudeste 0 -- -- 88
2020-01-15 20:00:00 8.9 37 Sur 54 Sur 0 -- -- 83
2020-01-15 19:00:00 8.1 31 Sur 71 Sudoeste 0 -- -- 83
2020-01-15 18:00:00 8 30 Sur 56 Sur 0 -- -- 78
2020-01-15 17:00:00 9.2 32 Sur 57 Sur 0 -- -- 74
2020-01-15 16:00:00 10.2 37 Sur 55 Sur 0 -- -- 72
2020-01-15 15:00:00 10 37 Sur 58 Sur 0 -- -- 73
2020-01-15 14:00:00 9.7 33 Sur 49 Sur 0 -- -- 80
2020-01-15 13:00:00 9.2 24 Sur 45 Sudoeste 0 -- -- 83
2020-01-15 12:00:00 7.2 22 Sur 36 Sudoeste 0 -- -- 98
2020-01-15 11:00:00 6 10 Sur 22 Sur 0 -- -- 96
2020-01-15 10:00:00 5.3 12 Sur 40 Sudoeste 0 -- -- 97
2020-01-15 09:00:00 5 24 Sur 53 Sudoeste 3.8 -- -- 96
2020-01-15 08:00:00 4.7 31 Sur 58 Sur 7 -- -- 95
2020-01-15 07:00:00 7 35 Sur 62 Sur 3.4 -- -- 96
2020-01-15 06:00:00 7 40 Sur 90 Sur 1 -- -- 96
2020-01-15 05:00:00 7.6 62 Sur 99 Sur 0 -- -- 89
2020-01-15 04:00:00 7.2 68 Sur 101 Sur 0 -- -- 90
2020-01-15 03:00:00 6.5 58 Sur 87 Sur 0.6 -- -- 95
2020-01-15 02:00:00 6.7 56 Sur 80 Sur 0.6 -- -- 96
2020-01-15 01:00:00 6.5 59 Sur 86 Sur 0.4 -- -- 94
2020-01-15 00:00:00 6.6 51 Sur 90 Sur 0.2 -- -- 94
2020-01-14 23:00:00 6.5 46 Sur 82 Sur 0.2 -- -- 93
2020-01-14 22:00:00 6.4 32 Sur 74 Sur 0 -- -- 92
2020-01-14 21:00:00 6.1 38 Sur 74 Sur 0 -- -- 92
2020-01-14 20:00:00 6.5 42 Sur 76 Sur 0 -- -- 88
2020-01-14 19:00:00 6.8 42 Sur 77 Sur 0 -- -- 84
2020-01-14 18:00:00 6.8 33 Sur 61 Sur 0 -- -- 83
2020-01-14 17:00:00 6.4 35 Sur 73 Sur 0 -- -- 88
2020-01-14 16:00:00 6.6 36 Sur 70 Sur 0 -- -- 89
2020-01-14 15:00:00 6.3 20 Sur 60 Sur 0 -- -- 88
2020-01-14 14:00:00 7.6 36 Sur 63 Sur 0 -- -- 78
2020-01-14 13:00:00 7.5 32 Sur 83 Sur 0 -- -- 77
2020-01-14 12:00:00 8.4 41 Sur 77 Sur 0 -- -- 69
2020-01-14 11:00:00 6.5 33 Sur 66 Sur 0 -- -- 81
2020-01-14 10:00:00 6.3 26 Sur 66 Sudoeste 0 -- -- 80
2020-01-14 09:00:00 5.8 41 Sur 74 Sur 0 -- -- 84
2020-01-14 08:00:00 5.3 47 Sur 75 Sur 0 -- -- 89
2020-01-14 07:00:00 5.2 32 Sur 65 Sur 0 -- -- 90
2020-01-14 06:00:00 5.2 50 Sur 66 Sur 0 -- -- 92
2020-01-14 05:00:00 5.2 47 Sur 67 Sur 0 -- -- 94
2020-01-14 04:00:00 5.3 40 Sur 59 Sur 0 -- -- 93
2020-01-14 03:00:00 5 37 Sur 66 Sur 0 -- -- 91
2020-01-14 02:00:00 5.2 35 Sur 62 Sur 0 -- -- 91
2020-01-14 01:00:00 5.1 42 Sur 71 Sur 0 -- -- 91
2020-01-14 00:00:00 4.8 43 Sur 64 Sur 0 -- -- 94
2020-01-13 23:00:00 4.9 41 Sur 60 Sur 0 -- -- 91
2020-01-13 22:00:00 4.5 32 Sur 56 Sur 0 -- -- 93
2020-01-13 21:00:00 4.7 34 Sur 49 Sur 0 -- -- 90
2020-01-13 20:00:00 4.4 19 Sur 47 Sur 0 -- -- 87
2020-01-13 19:00:00 4.2 30 Sur 48 Sur 0 -- -- 85
2020-01-13 18:00:00 4.9 30 Sur 42 Sur 0 -- -- 76
2020-01-13 17:00:00 6.8 29 Sur 49 Sur 0 -- -- 66
2020-01-13 16:00:00 9.2 25 Sur 49 Sur 0 -- -- 51
2020-01-13 15:00:00 9.3 36 Sur 60 Sur 0 -- -- 47
2020-01-13 14:00:00 9.8 34 Sur 50 Sudoeste 0 -- -- 42
2020-01-13 13:00:00 9.2 31 Sur 47 Sur 0 -- -- 38
2020-01-13 12:00:00 8.2 34 Sur 48 Sur 0 -- -- 42
2020-01-13 11:00:00 4.8 24 Sur 34 Sur 0 -- -- 45
2020-01-13 10:00:00 3.9 0 Calma 17 Sur 0 -- -- 54
2020-01-13 09:00:00 2.5 4 Oeste 17 Oeste 0 -- -- 61
2020-01-13 08:00:00 1.2 7 Sudoeste 16 Sudoeste 0 -- -- 82
2020-01-13 07:00:00 0 4 Sudoeste 8 Sudoeste 0 -- -- 94
2020-01-13 06:00:00 -1 3 Sur 4 Sudoeste 0 -- -- 96
2020-01-13 05:00:00 -1.3 3 Sudoeste 8 Sudoeste 0 -- -- 96
2020-01-13 04:00:00 -1.4 3 Sudoeste 6 Sudoeste 0 -- -- 97
2020-01-13 03:00:00 -1.1 3 Sudoeste 6 Sudoeste 0 -- -- 96
2020-01-13 02:00:00 -0.6 3 Sudoeste 6 Oeste 0 -- -- 95
2020-01-13 01:00:00 -0.3 2 Sudoeste 7 Sudoeste 0 -- -- 94
2020-01-13 00:00:00 0 5 Oeste 8 Oeste 0 -- -- 93
2020-01-12 23:00:00 0.6 4 Sudoeste 7 Sur 0 -- -- 91
2020-01-12 22:00:00 1.3 2 Sudoeste 9 Oeste 0 -- -- 87
2020-01-12 21:00:00 2.3 0 Calma 8 Sudoeste 0 -- -- 81
2020-01-12 20:00:00 3.6 3 Sur 12 Sur 0 -- -- 73
2020-01-12 19:00:00 6.1 5 Sur 10 Sur 0 -- -- 62
2020-01-12 18:00:00 8.3 0 Calma 9 Sur 0 -- -- 53
2020-01-12 17:00:00 11.1 2 Sur 7 Norte 0 -- -- 45
2020-01-12 16:00:00 12.3 2 Norte 6 Norte 0 -- -- 40
2020-01-12 15:00:00 11.8 4 Norte 7 Norte 0 -- -- 36
2020-01-12 14:00:00 9.7 3 Norte 5 Nordeste 0 -- -- 36
2020-01-12 13:00:00 7.5 4 Nordeste 9 Sudoeste 0 -- -- 36
2020-01-12 12:00:00 3.4 4 Sudoeste 8 Sudoeste 0 -- -- 54
2020-01-12 11:00:00 -0.3 4 Sudoeste 6 Sudoeste 0 -- -- 68
2020-01-12 10:00:00 -3.3 4 Sudoeste 12 Sudoeste 0 -- -- 85
2020-01-12 09:00:00 -3.7 3 Sudoeste 9 Oeste 0 -- -- 83
2020-01-12 08:00:00 -3.6 2 Sudoeste 8 Sudoeste 0 -- -- 86
2020-01-12 07:00:00 -3.6 6 Oeste 11 Oeste 0 -- -- 90
2020-01-12 06:00:00 -3.3 3 Sudoeste 10 Oeste 0 -- -- 92
2020-01-12 05:00:00 -2.6 4 Sudoeste 9 Oeste 0 -- -- 95
2020-01-12 04:00:00 -2.2 3 Sudoeste 9 Oeste 0 -- -- 95
2020-01-12 03:00:00 -1.9 2 Sur 9 Oeste 0 -- -- 96
2020-01-12 02:00:00 -1.8 4 Sur 10 Sudoeste 0 -- -- 95
2020-01-12 01:00:00 -1.2 4 Oeste 8 Oeste 0 -- -- 96
2020-01-12 00:00:00 -0.7 4 Sudoeste 9 Sudoeste 0 -- -- 95
2020-01-11 23:00:00 0.1 3 Sudoeste 6 Sudoeste 0 -- -- 93
2020-01-11 22:00:00 1 3 Sudoeste 6 Oeste 0 -- -- 89
2020-01-11 21:00:00 2.1 3 Sur 5 Sur 0 -- -- 86
2020-01-11 20:00:00 3.7 5 Sur 8 Sur 0 -- -- 81
2020-01-11 19:00:00 5.5 0 Calma 5 Sudeste 0 -- -- 76
2020-01-11 18:00:00 7.5 2 Nordeste 6 Norte 0 -- -- 69
2020-01-11 17:00:00 8.7 5 Norte 12 Norte 0 -- -- 64
2020-01-11 16:00:00 10.1 7 Norte 10 Norte 0 -- -- 58
2020-01-11 15:00:00 9 5 Norte 9 Nordeste 0 -- -- 61
2020-01-11 14:00:00 5.9 9 Nordeste 14 Norte 0 -- -- 72
2020-01-11 13:00:00 5.9 8 Norte 10 Norte 0 -- -- 66
2020-01-11 12:00:00 4.5 0 Calma 5 Sur 0 -- -- 75
2020-01-11 11:00:00 0.8 0 Calma 4 Oeste 0 -- -- 97
2020-01-11 10:00:00 -1.9 0 Calma 4 Sudoeste 0 -- -- 100
2020-01-11 09:00:00 -2.6 0 Calma 3 Sudoeste 0 -- -- 99
2020-01-11 08:00:00 -2.4 0 Calma 4 Oeste 0 -- -- 99
2020-01-11 07:00:00 -2.4 0 Calma 3 Sudoeste 0 -- -- 99
2020-01-11 06:00:00 -2.3 0 Calma 4 Sudoeste 0 -- -- 99
2020-01-11 05:00:00 -2.2 0 Calma 4 Sudoeste 0 -- -- 100
2020-01-11 04:00:00 -2.2 3 Sur 6 Sudoeste 0 -- -- 100
2020-01-11 03:00:00 -2 2 Sudoeste 5 Sudoeste 0 -- -- 100
2020-01-11 02:00:00 -1.9 2 Sur 6 Sur 0 -- -- 100
2020-01-11 01:00:00 -1.6 0 Calma 5 Sudoeste 0 -- -- 99
2020-01-11 00:00:00 -1.3 2 Sur 5 Sur 0 -- -- 99
2020-01-10 23:00:00 -0.9 0 Calma 6 Sudoeste 0 -- -- 98
2020-01-10 22:00:00 -0.3 0 Calma 8 Sur 0 -- -- 96
2020-01-10 21:00:00 0.5 0 Calma 5 Sudoeste 0 -- -- 94
2020-01-10 20:00:00 1.3 3 Sur 9 Sur 0 -- -- 91
2020-01-10 19:00:00 2.6 3 Sudoeste 7 Sur 0 -- -- 87
2020-01-10 18:00:00 4.4 5 Sur 13 Norte 0 -- -- 81
2020-01-10 17:00:00 5.5 7 Norte 17 Nordeste 0 -- -- 78
2020-01-10 16:00:00 6.4 8 Norte 19 Norte 0 -- -- 74
2020-01-10 15:00:00 6 8 Nordeste 18 Nordeste 0 -- -- 77
2020-01-10 14:00:00 5.4 9 Nordeste 20 Norte 0 -- -- 82
2020-01-10 13:00:00 5.3 5 Nordeste 16 Norte 0 -- -- 77
2020-01-10 12:00:00 3.6 3 Nordeste 10 Nordeste 0 -- -- 89
2020-01-10 11:00:00 2 2 Norte 8 Nordeste 0 -- -- 96
2020-01-10 10:00:00 0.6 0 Calma 4 Nordeste 0.2 -- -- 100
2020-01-10 09:00:00 0.6 3 Nordeste 8 Nordeste 0 -- -- 100
2020-01-10 08:00:00 1.1 0 Calma 17 Norte 0 -- -- 99
2020-01-10 07:00:00 1.7 5 Norte 20 Noroeste 0 -- -- 100
2020-01-10 06:00:00 1.7 4 Norte 17 Norte 0 -- -- 100
2020-01-10 05:00:00 1.9 5 Norte 22 Norte 0 -- -- 99
2020-01-10 04:00:00 2 8 Norte 20 Noroeste 0 -- -- 97
2020-01-10 03:00:00 2.4 5 Norte 26 Noroeste 0 -- -- 95
2020-01-10 02:00:00 2.3 6 Norte 22 Norte 0 -- -- 95
2020-01-10 01:00:00 2.2 5 Norte 14 Norte 0 -- -- 95
2020-01-10 00:00:00 2.3 5 Nordeste 13 Nordeste 0 -- -- 96
2020-01-09 23:00:00 2.3 0 Calma 12 Noroeste 0 -- -- 94
2020-01-09 22:00:00 2.1 2 Nordeste 13 Norte 0 -- -- 91
2020-01-09 21:00:00 2.9 6 Noroeste 17 Noroeste 0 -- -- 93
2020-01-09 20:00:00 3.4 3 Noroeste 22 Noroeste 0 -- -- 94
2020-01-09 19:00:00 4.4 10 Noroeste 27 Noroeste 0 -- -- 91
2020-01-09 18:00:00 5.3 8 Oeste 32 Noroeste 0 -- -- 94
2020-01-09 17:00:00 5.9 10 Noroeste 35 Oeste 0 -- -- 93
2020-01-09 16:00:00 6.7 19 Oeste 61 Oeste 0.4 -- -- 93
2020-01-09 15:00:00 8.7 19 Oeste 72 Sudoeste 0 -- -- 91
2020-01-09 14:00:00 10.6 34 Sudoeste 61 Sudoeste 0 -- -- 78
2020-01-09 13:00:00 10.4 15 Sudoeste 44 Sur 0 -- -- 86
2020-01-09 12:00:00 9.6 20 Sur 37 Sudoeste 0 -- -- 89
2020-01-09 11:00:00 9.3 16 Sudoeste 33 Sur 0 -- -- 90
2020-01-09 10:00:00 8.8 17 Sudoeste 30 Sur 0 -- -- 93
2020-01-09 09:00:00 8.6 5 Sudoeste 22 Sur 0 -- -- 91
2020-01-09 08:00:00 8.3 10 Sur 23 Sur 0 -- -- 97
2020-01-09 07:00:00 8 2 Sudoeste 8 Sur 0 -- -- 97
2020-01-09 06:00:00 7.8 3 Sur 6 Sudeste 0 -- -- 97
2020-01-09 05:00:00 7.9 0 Calma 10 Sudoeste 0 -- -- 98
2020-01-09 04:00:00 7.1 4 Oeste 10 Oeste 0 -- -- 98
2020-01-09 03:00:00 6.7 3 Sudoeste 9 Sur 0 -- -- 97
2020-01-09 02:00:00 6.8 3 Sur 6 Oeste 0 -- -- 95
2020-01-09 01:00:00 6.7 2 Oeste 6 Sudoeste 0 -- -- 95
2020-01-09 00:00:00 7.6 0 Calma 3 Sur 0 -- -- 92
2020-01-08 23:00:00 7.9 0 Calma 8 Sur 0 -- -- 94
2020-01-08 22:00:00 7.9 4 Sur 8 Sudoeste 0 -- -- 91
2020-01-08 21:00:00 8 2 Sudoeste 6 Sur 0 -- -- 87
2020-01-08 20:00:00 8.5 2 Sur 4 Sur 0 -- -- 87
2020-01-08 19:00:00 10.3 3 Sudoeste 8 Oeste 0 -- -- 79
2020-01-08 18:00:00 12.1 3 Oeste 14 Oeste 0 -- -- 74
2020-01-08 17:00:00 13.6 4 Oeste 19 Noroeste 0 -- -- 70
2020-01-08 16:00:00 15.2 8 Oeste 20 Oeste 0 -- -- 64
2020-01-08 15:00:00 15 6 Noroeste 17 Noroeste 0 -- -- 65
2020-01-08 14:00:00 13.5 3 Norte 7 Sur 0 -- -- 71
2020-01-08 13:00:00 12.5 3 Sur 5 Sur 0 -- -- 67
2020-01-08 12:00:00 8.6 3 Sur 8 Oeste 0 -- -- 59
2020-01-08 11:00:00 4.7 3 Sudoeste 7 Sudoeste 0 -- -- 60
2020-01-08 10:00:00 1.6 2 Sudoeste 9 Sudoeste 0 -- -- 70
2020-01-08 09:00:00 0.6 4 Sur 6 Sudoeste 0 -- -- 69
2020-01-08 08:00:00 0.5 4 Sudoeste 8 Sudoeste 0 -- -- 72
2020-01-08 07:00:00 0.6 6 Oeste 11 Oeste 0 -- -- 70
2020-01-08 06:00:00 0.6 5 Sudoeste 9 Oeste 0 -- -- 68
2020-01-08 05:00:00 0.9 3 Sudoeste 8 Sudoeste 0 -- -- 66
2020-01-08 04:00:00 0.9 7 Sudoeste 10 Sudoeste 0 -- -- 68
2020-01-08 03:00:00 1 4 Oeste 8 Oeste 0 -- -- 66
2020-01-08 02:00:00 1.2 2 Sur 6 Sudoeste 0 -- -- 64
2020-01-08 01:00:00 1.2 4 Sudoeste 9 Sudoeste 0 -- -- 69
2020-01-08 00:00:00 1.4 4 Oeste 10 Sudoeste 0 -- -- 68
2020-01-07 23:00:00 1.8 4 Sudoeste 8 Sudoeste 0 -- -- 67
2020-01-07 22:00:00 2.5 3 Sudoeste 7 Sudoeste 0 -- -- 66
2020-01-07 21:00:00 3.7 2 Sudoeste 6 Sudoeste 0 -- -- 63
2020-01-07 20:00:00 5.4 2 Sur 10 Sur 0 -- -- 56
2020-01-07 19:00:00 7.1 7 Sur 12 Sur 0 -- -- 51
2020-01-07 18:00:00 10.4 5 Sur 9 Sur 0 -- -- 40
2020-01-07 17:00:00 12.2 4 Norte 11 Nordeste 0 -- -- 35
2020-01-07 16:00:00 13.9 3 Norte 6 Norte 0 -- -- 34
2020-01-07 15:00:00 11.9 5 Norte 12 Norte 0 -- -- 38
2020-01-07 14:00:00 9.5 7 Norte 14 Norte 0 -- -- 42
2020-01-07 13:00:00 7.6 8 Norte 11 Nordeste 0 -- -- 41
2020-01-07 12:00:00 6.5 0 Calma 4 Sudeste 0 -- -- 48
2020-01-07 11:00:00 2.1 3 Sudoeste 6 Oeste 0 -- -- 60
2020-01-07 10:00:00 -0.3 0 Calma 4 Sur 0 -- -- 65
2020-01-07 09:00:00 -1.3 0 Calma 5 Oeste 0 -- -- 65
2020-01-07 08:00:00 -1.6 4 Sudoeste 6 Sudoeste 0 -- -- 73
2020-01-07 07:00:00 -1.9 2 Sur 4 Sudoeste 0 -- -- 69
2020-01-07 06:00:00 -1.8 3 Sudoeste 5 Sudoeste 0 -- -- 76
2020-01-07 05:00:00 -1.5 0 Calma 6 Sudoeste 0 -- -- 79
2020-01-07 04:00:00 -1.2 3 Sur 9 Sudoeste 0 -- -- 70
2020-01-07 03:00:00 -1.7 4 Oeste 8 Oeste 0 -- -- 82
2020-01-07 02:00:00 -1.5 0 Calma 4 Sur 0 -- -- 83
2020-01-07 01:00:00 -1.4 2 Sudoeste 6 Sudoeste 0 -- -- 83
2020-01-07 00:00:00 -0.8 4 Sudoeste 13 Sudoeste 0 -- -- 84
2020-01-06 23:00:00 -0.6 4 Sudoeste 8 Sudoeste 0 -- -- 87
2020-01-06 22:00:00 -0.2 4 Sur 8 Sudoeste 0 -- -- 83
2020-01-06 21:00:00 0.9 3 Oeste 8 Sur 0 -- -- 85
2020-01-06 20:00:00 2.7 0 Calma 3 Sudoeste 0 -- -- 72
2020-01-06 19:00:00 4.7 3 Nordeste 8 Nordeste 0 -- -- 70
2020-01-06 18:00:00 7.5 2 Noroeste 13 Sudeste 0 -- -- 60
2020-01-06 17:00:00 9.9 3 Sur 6 Norte 0 -- -- 52
2020-01-06 16:00:00 10.7 5 Norte 11 Noroeste 0 -- -- 49
2020-01-06 15:00:00 9.5 3 Nordeste 10 Nordeste 0 -- -- 52
2020-01-06 14:00:00 7.4 7 Nordeste 12 Norte 0 -- -- 53
2020-01-06 13:00:00 7.3 0 Calma 6 Sur 0 -- -- 47
2020-01-06 12:00:00 5.1 3 Sur 5 Sur 0 -- -- 57
2020-01-06 11:00:00 2.3 3 Sur 9 Oeste 0 -- -- 66
2020-01-06 10:00:00 -1 5 Sur 13 Sudoeste 0 -- -- 77